sensor_id;sensor_type;location;lat;lon;timestamp;P1;durP1;ratioP1;P2;durP2;ratioP2
11228;SDS011;5671;47.936;8.716;2023-12-07T00:00:21;7.43;;;6.63;;
11228;SDS011;5671;47.936;8.716;2023-12-07T00:02:48;6.90;;;6.30;;
11228;SDS011;5671;47.936;8.716;2023-12-07T00:05:16;7.20;;;6.50;;
11228;SDS011;5671;47.936;8.716;2023-12-07T00:07:43;7.20;;;6.50;;
11228;SDS011;5671;47.936;8.716;2023-12-07T00:10:10;8.07;;;7.23;;
11228;SDS011;5671;47.936;8.716;2023-12-07T00:12:37;8.87;;;7.97;;
11228;SDS011;5671;47.936;8.716;2023-12-07T00:15:04;8.57;;;7.67;;
11228;SDS011;5671;47.936;8.716;2023-12-07T00:17:32;10.00;;;7.70;;
11228;SDS011;5671;47.936;8.716;2023-12-07T00:19:59;8.70;;;7.40;;
11228;SDS011;5671;47.936;8.716;2023-12-07T00:22:27;7.87;;;7.07;;
11228;SDS011;5671;47.936;8.716;2023-12-07T00:24:54;7.83;;;7.03;;
11228;SDS011;5671;47.936;8.716;2023-12-07T00:27:21;7.70;;;7.00;;
11228;SDS011;5671;47.936;8.716;2023-12-07T00:29:47;7.03;;;5.97;;
11228;SDS011;5671;47.936;8.716;2023-12-07T00:32:14;7.70;;;6.93;;
11228;SDS011;5671;47.936;8.716;2023-12-07T00:34:42;7.00;;;6.30;;
11228;SDS011;5671;47.936;8.716;2023-12-07T00:37:09;7.73;;;6.67;;
11228;SDS011;5671;47.936;8.716;2023-12-07T00:39:37;8.17;;;6.53;;
11228;SDS011;5671;47.936;8.716;2023-12-07T00:42:06;7.00;;;6.37;;
11228;SDS011;5671;47.936;8.716;2023-12-07T00:44:33;6.90;;;6.20;;
11228;SDS011;5671;47.936;8.716;2023-12-07T00:47:00;7.23;;;6.17;;
11228;SDS011;5671;47.936;8.716;2023-12-07T00:49:26;6.97;;;6.37;;
11228;SDS011;5671;47.936;8.716;2023-12-07T00:51:53;6.87;;;6.17;;
11228;SDS011;5671;47.936;8.716;2023-12-07T00:54:20;7.50;;;6.60;;
11228;SDS011;5671;47.936;8.716;2023-12-07T00:56:48;6.63;;;6.00;;
11228;SDS011;5671;47.936;8.716;2023-12-07T00:59:16;8.03;;;6.57;;
11228;SDS011;5671;47.936;8.716;2023-12-07T01:01:43;6.90;;;6.30;;
11228;SDS011;5671;47.936;8.716;2023-12-07T01:04:09;6.60;;;6.00;;
11228;SDS011;5671;47.936;8.716;2023-12-07T01:06:36;6.87;;;6.17;;
11228;SDS011;5671;47.936;8.716;2023-12-07T01:09:04;7.97;;;6.57;;
11228;SDS011;5671;47.936;8.716;2023-12-07T01:11:31;7.53;;;6.37;;
11228;SDS011;5671;47.936;8.716;2023-12-07T01:13:59;6.83;;;6.23;;
11228;SDS011;5671;47.936;8.716;2023-12-07T01:16:26;8.17;;;6.10;;
11228;SDS011;5671;47.936;8.716;2023-12-07T01:18:53;6.80;;;5.77;;
11228;SDS011;5671;47.936;8.716;2023-12-07T01:21:20;7.30;;;6.60;;
11228;SDS011;5671;47.936;8.716;2023-12-07T01:23:46;6.93;;;6.23;;
11228;SDS011;5671;47.936;8.716;2023-12-07T01:26:13;6.43;;;5.83;;
11228;SDS011;5671;47.936;8.716;2023-12-07T01:28:40;7.83;;;6.80;;
11228;SDS011;5671;47.936;8.716;2023-12-07T01:31:08;7.50;;;6.13;;
11228;SDS011;5671;47.936;8.716;2023-12-07T01:33:35;6.97;;;6.27;;
11228;SDS011;5671;47.936;8.716;2023-12-07T01:36:02;6.30;;;5.70;;
11228;SDS011;5671;47.936;8.716;2023-12-07T01:38:29;8.77;;;5.90;;
11228;SDS011;5671;47.936;8.716;2023-12-07T01:40:55;6.73;;;5.87;;
11228;SDS011;5671;47.936;8.716;2023-12-07T01:43:22;5.97;;;5.40;;
11228;SDS011;5671;47.936;8.716;2023-12-07T01:45:49;5.90;;;5.30;;
11228;SDS011;5671;47.936;8.716;2023-12-07T01:48:20;6.57;;;5.97;;
11228;SDS011;5671;47.936;8.716;2023-12-07T01:50:47;6.47;;;5.80;;
11228;SDS011;5671;47.936;8.716;2023-12-07T01:53:14;5.90;;;5.30;;
11228;SDS011;5671;47.936;8.716;2023-12-07T01:55:42;6.57;;;5.93;;
11228;SDS011;5671;47.936;8.716;2023-12-07T01:58:10;12.53;;;6.30;;
11228;SDS011;5671;47.936;8.716;2023-12-07T02:00:37;6.53;;;5.93;;
11228;SDS011;5671;47.936;8.716;2023-12-07T02:03:04;6.60;;;5.90;;
11228;SDS011;5671;47.936;8.716;2023-12-07T02:05:33;6.60;;;5.97;;
11228;SDS011;5671;47.936;8.716;2023-12-07T02:08:02;8.30;;;6.33;;
11228;SDS011;5671;47.936;8.716;2023-12-07T02:10:29;7.30;;;6.60;;
11228;SDS011;5671;47.936;8.716;2023-12-07T02:12:56;6.40;;;5.80;;
11228;SDS011;5671;47.936;8.716;2023-12-07T02:15:23;6.90;;;6.27;;
11228;SDS011;5671;47.936;8.716;2023-12-07T02:17:51;76.57;;;9.33;;
11228;SDS011;5671;47.936;8.716;2023-12-07T02:20:28;39.13;;;8.47;;
11228;SDS011;5671;47.936;8.716;2023-12-07T02:23:01;8.07;;;7.23;;
11228;SDS011;5671;47.936;8.716;2023-12-07T02:25:31;7.87;;;7.07;;
11228;SDS011;5671;47.936;8.716;2023-12-07T02:28:03;10.73;;;7.97;;
11228;SDS011;5671;47.936;8.716;2023-12-07T02:30:29;13.60;;;7.90;;
11228;SDS011;5671;47.936;8.716;2023-12-07T02:32:56;9.23;;;8.40;;
11228;SDS011;5671;47.936;8.716;2023-12-07T02:35:24;12.47;;;8.63;;
11228;SDS011;5671;47.936;8.716;2023-12-07T02:37:51;10.47;;;9.17;;
11228;SDS011;5671;47.936;8.716;2023-12-07T02:40:20;7.80;;;7.10;;
11228;SDS011;5671;47.936;8.716;2023-12-07T02:42:48;8.03;;;7.23;;
11228;SDS011;5671;47.936;8.716;2023-12-07T02:45:17;8.50;;;7.40;;
11228;SDS011;5671;47.936;8.716;2023-12-07T02:47:44;8.20;;;7.37;;
11228;SDS011;5671;47.936;8.716;2023-12-07T02:50:12;8.97;;;7.70;;
11228;SDS011;5671;47.936;8.716;2023-12-07T02:52:39;8.20;;;7.40;;
11228;SDS011;5671;47.936;8.716;2023-12-07T02:55:06;7.97;;;7.23;;
11228;SDS011;5671;47.936;8.716;2023-12-07T02:57:34;21.17;;;7.70;;
11228;SDS011;5671;47.936;8.716;2023-12-07T03:00:01;18.53;;;7.70;;
11228;SDS011;5671;47.936;8.716;2023-12-07T03:02:32;8.33;;;7.53;;
11228;SDS011;5671;47.936;8.716;2023-12-07T03:04:59;11.60;;;8.13;;
11228;SDS011;5671;47.936;8.716;2023-12-07T03:07:26;80.73;;;10.23;;
11228;SDS011;5671;47.936;8.716;2023-12-07T03:09:53;17.37;;;7.60;;
11228;SDS011;5671;47.936;8.716;2023-12-07T03:12:19;51.97;;;9.10;;
11228;SDS011;5671;47.936;8.716;2023-12-07T03:14:46;61.53;;;12.07;;
11228;SDS011;5671;47.936;8.716;2023-12-07T03:17:13;44.77;;;10.60;;
11228;SDS011;5671;47.936;8.716;2023-12-07T03:19:41;99.07;;;10.87;;
11228;SDS011;5671;47.936;8.716;2023-12-07T03:22:08;47.57;;;10.33;;
11228;SDS011;5671;47.936;8.716;2023-12-07T03:24:35;75.50;;;10.03;;
11228;SDS011;5671;47.936;8.716;2023-12-07T03:27:03;45.10;;;9.83;;
11228;SDS011;5671;47.936;8.716;2023-12-07T03:29:31;159.20;;;12.00;;
11228;SDS011;5671;47.936;8.716;2023-12-07T03:31:58;42.20;;;10.47;;
11228;SDS011;5671;47.936;8.716;2023-12-07T03:34:24;51.35;;;10.60;;
11228;SDS011;5671;47.936;8.716;2023-12-07T03:36:53;72.70;;;10.63;;
11228;SDS011;5671;47.936;8.716;2023-12-07T03:39:19;37.63;;;10.33;;
11228;SDS011;5671;47.936;8.716;2023-12-07T03:41:47;79.07;;;10.80;;
11228;SDS011;5671;47.936;8.716;2023-12-07T03:44:14;28.63;;;8.37;;
11228;SDS011;5671;47.936;8.716;2023-12-07T03:46:41;47.20;;;7.67;;
11228;SDS011;5671;47.936;8.716;2023-12-07T03:49:08;29.17;;;7.53;;
11228;SDS011;5671;47.936;8.716;2023-12-07T03:51:35;203.50;;;12.43;;
11228;SDS011;5671;47.936;8.716;2023-12-07T03:54:03;110.30;;;8.93;;
11228;SDS011;5671;47.936;8.716;2023-12-07T03:56:32;173.53;;;10.77;;
11228;SDS011;5671;47.936;8.716;2023-12-07T03:58:59;283.97;;;12.67;;
11228;SDS011;5671;47.936;8.716;2023-12-07T04:01:27;207.07;;;11.10;;
11228;SDS011;5671;47.936;8.716;2023-12-07T04:03:55;255.30;;;12.23;;
11228;SDS011;5671;47.936;8.716;2023-12-07T04:06:23;42.93;;;7.93;;
11228;SDS011;5671;47.936;8.716;2023-12-07T04:08:50;268.67;;;14.80;;
11228;SDS011;5671;47.936;8.716;2023-12-07T04:11:19;227.43;;;11.53;;
11228;SDS011;5671;47.936;8.716;2023-12-07T04:13:45;113.57;;;10.57;;
11228;SDS011;5671;47.936;8.716;2023-12-07T04:16:12;199.97;;;12.20;;
11228;SDS011;5671;47.936;8.716;2023-12-07T04:18:39;44.03;;;8.20;;
11228;SDS011;5671;47.936;8.716;2023-12-07T04:21:06;7.43;;;6.00;;
11228;SDS011;5671;47.936;8.716;2023-12-07T04:23:33;88.00;;;8.17;;
11228;SDS011;5671;47.936;8.716;2023-12-07T04:26:00;92.80;;;8.23;;
11228;SDS011;5671;47.936;8.716;2023-12-07T04:28:28;95.67;;;8.27;;
11228;SDS011;5671;47.936;8.716;2023-12-07T04:30:55;29.10;;;6.07;;
11228;SDS011;5671;47.936;8.716;2023-12-07T04:33:21;18.40;;;5.80;;
11228;SDS011;5671;47.936;8.716;2023-12-07T04:35:48;38.37;;;6.37;;
11228;SDS011;5671;47.936;8.716;2023-12-07T04:38:15;13.97;;;5.47;;
11228;SDS011;5671;47.936;8.716;2023-12-07T04:40:42;14.90;;;5.77;;
11228;SDS011;5671;47.936;8.716;2023-12-07T04:43:08;15.43;;;6.37;;
11228;SDS011;5671;47.936;8.716;2023-12-07T04:45:37;7.20;;;5.43;;
11228;SDS011;5671;47.936;8.716;2023-12-07T04:48:04;7.53;;;6.07;;
11228;SDS011;5671;47.936;8.716;2023-12-07T04:50:31;39.97;;;6.70;;
11228;SDS011;5671;47.936;8.716;2023-12-07T04:52:58;31.40;;;6.30;;
11228;SDS011;5671;47.936;8.716;2023-12-07T04:55:25;102.93;;;8.63;;
11228;SDS011;5671;47.936;8.716;2023-12-07T04:57:52;9.07;;;6.20;;
11228;SDS011;5671;47.936;8.716;2023-12-07T05:00:19;8.02;;;6.30;;
11228;SDS011;5671;47.936;8.716;2023-12-07T05:02:47;34.10;;;7.00;;
11228;SDS011;5671;47.936;8.716;2023-12-07T05:05:14;10.70;;;6.20;;
11228;SDS011;5671;47.936;8.716;2023-12-07T05:07:41;23.17;;;6.47;;
11228;SDS011;5671;47.936;8.716;2023-12-07T05:10:08;28.30;;;6.83;;
11228;SDS011;5671;47.936;8.716;2023-12-07T05:12:35;20.47;;;5.93;;
11228;SDS011;5671;47.936;8.716;2023-12-07T05:15:02;19.27;;;5.50;;
11228;SDS011;5671;47.936;8.716;2023-12-07T05:17:31;26.20;;;6.00;;
11228;SDS011;5671;47.936;8.716;2023-12-07T05:19:59;12.17;;;5.23;;
11228;SDS011;5671;47.936;8.716;2023-12-07T05:22:27;7.37;;;5.63;;
11228;SDS011;5671;47.936;8.716;2023-12-07T05:24:54;8.07;;;5.47;;
11228;SDS011;5671;47.936;8.716;2023-12-07T05:27:20;23.90;;;5.63;;
11228;SDS011;5671;47.936;8.716;2023-12-07T05:29:47;23.23;;;6.70;;
11228;SDS011;5671;47.936;8.716;2023-12-07T05:32:14;32.70;;;7.22;;
11228;SDS011;5671;47.936;8.716;2023-12-07T05:34:41;47.50;;;8.10;;
11228;SDS011;5671;47.936;8.716;2023-12-07T05:37:10;84.50;;;7.20;;
11228;SDS011;5671;47.936;8.716;2023-12-07T05:39:36;15.60;;;6.55;;
11228;SDS011;5671;47.936;8.716;2023-12-07T05:42:03;8.57;;;6.10;;
11228;SDS011;5671;47.936;8.716;2023-12-07T05:44:31;7.57;;;6.37;;
11228;SDS011;5671;47.936;8.716;2023-12-07T05:46:58;5.53;;;4.90;;
11228;SDS011;5671;47.936;8.716;2023-12-07T05:49:25;7.00;;;4.93;;
11228;SDS011;5671;47.936;8.716;2023-12-07T05:51:52;6.57;;;4.70;;
11228;SDS011;5671;47.936;8.716;2023-12-07T05:54:20;5.80;;;5.13;;
11228;SDS011;5671;47.936;8.716;2023-12-07T05:56:48;8.35;;;4.95;;
11228;SDS011;5671;47.936;8.716;2023-12-07T05:59:15;6.50;;;5.47;;
11228;SDS011;5671;47.936;8.716;2023-12-07T06:01:41;10.53;;;8.13;;
11228;SDS011;5671;47.936;8.716;2023-12-07T06:04:09;16.98;;;13.40;;
11228;SDS011;5671;47.936;8.716;2023-12-07T06:06:37;23.33;;;11.88;;
11228;SDS011;5671;47.936;8.716;2023-12-07T06:09:04;11.30;;;7.97;;
11228;SDS011;5671;47.936;8.716;2023-12-07T06:11:32;9.57;;;6.83;;
11228;SDS011;5671;47.936;8.716;2023-12-07T06:13:59;8.93;;;5.80;;
11228;SDS011;5671;47.936;8.716;2023-12-07T06:16:26;6.25;;;5.47;;
11228;SDS011;5671;47.936;8.716;2023-12-07T06:18:53;5.90;;;5.30;;
11228;SDS011;5671;47.936;8.716;2023-12-07T06:21:20;5.90;;;5.23;;
11228;SDS011;5671;47.936;8.716;2023-12-07T06:23:46;5.47;;;4.97;;
11228;SDS011;5671;47.936;8.716;2023-12-07T06:26:13;5.00;;;4.50;;
11228;SDS011;5671;47.936;8.716;2023-12-07T06:28:41;6.87;;;5.43;;
11228;SDS011;5671;47.936;8.716;2023-12-07T06:31:09;5.20;;;4.70;;
11228;SDS011;5671;47.936;8.716;2023-12-07T06:33:37;6.57;;;4.30;;
11228;SDS011;5671;47.936;8.716;2023-12-07T06:36:04;5.75;;;4.07;;
11228;SDS011;5671;47.936;8.716;2023-12-07T06:38:31;5.50;;;4.33;;
11228;SDS011;5671;47.936;8.716;2023-12-07T06:40:58;7.03;;;5.18;;
11228;SDS011;5671;47.936;8.716;2023-12-07T06:43:25;5.83;;;4.70;;
11228;SDS011;5671;47.936;8.716;2023-12-07T06:45:53;4.90;;;4.40;;
11228;SDS011;5671;47.936;8.716;2023-12-07T06:48:20;4.30;;;3.90;;
11228;SDS011;5671;47.936;8.716;2023-12-07T06:50:47;5.22;;;4.50;;
11228;SDS011;5671;47.936;8.716;2023-12-07T06:53:14;6.40;;;4.80;;
11228;SDS011;5671;47.936;8.716;2023-12-07T06:55:41;4.78;;;4.22;;
11228;SDS011;5671;47.936;8.716;2023-12-07T06:58:08;4.35;;;3.85;;
11228;SDS011;5671;47.936;8.716;2023-12-07T07:00:36;4.27;;;3.57;;
11228;SDS011;5671;47.936;8.716;2023-12-07T07:03:04;6.97;;;4.23;;
11228;SDS011;5671;47.936;8.716;2023-12-07T07:05:31;6.70;;;4.87;;
11228;SDS011;5671;47.936;8.716;2023-12-07T07:07:58;7.88;;;6.00;;
11228;SDS011;5671;47.936;8.716;2023-12-07T07:10:24;6.95;;;5.38;;
11228;SDS011;5671;47.936;8.716;2023-12-07T07:12:51;8.85;;;7.07;;
11228;SDS011;5671;47.936;8.716;2023-12-07T07:15:18;12.60;;;10.20;;
11228;SDS011;5671;47.936;8.716;2023-12-07T07:17:45;13.85;;;8.55;;
11228;SDS011;5671;47.936;8.716;2023-12-07T07:20:13;11.48;;;8.25;;
11228;SDS011;5671;47.936;8.716;2023-12-07T07:22:40;14.27;;;8.67;;
11228;SDS011;5671;47.936;8.716;2023-12-07T07:25:07;9.82;;;7.78;;
11228;SDS011;5671;47.936;8.716;2023-12-07T07:27:34;15.13;;;9.85;;
11228;SDS011;5671;47.936;8.716;2023-12-07T07:30:01;15.50;;;9.47;;
11228;SDS011;5671;47.936;8.716;2023-12-07T07:32:29;14.73;;;9.00;;
11228;SDS011;5671;47.936;8.716;2023-12-07T07:34:56;13.37;;;9.50;;
11228;SDS011;5671;47.936;8.716;2023-12-07T07:37:25;16.40;;;9.67;;
11228;SDS011;5671;47.936;8.716;2023-12-07T07:39:52;31.08;;;10.00;;
11228;SDS011;5671;47.936;8.716;2023-12-07T07:42:19;108.15;;;11.50;;
11228;SDS011;5671;47.936;8.716;2023-12-07T07:44:46;44.22;;;11.38;;
11228;SDS011;5671;47.936;8.716;2023-12-07T07:47:13;35.20;;;11.70;;
11228;SDS011;5671;47.936;8.716;2023-12-07T07:49:39;21.23;;;10.60;;
11228;SDS011;5671;47.936;8.716;2023-12-07T07:52:06;38.47;;;11.25;;
11228;SDS011;5671;47.936;8.716;2023-12-07T07:54:35;22.08;;;9.85;;
11228;SDS011;5671;47.936;8.716;2023-12-07T07:57:02;26.08;;;9.23;;
11228;SDS011;5671;47.936;8.716;2023-12-07T07:59:29;21.05;;;9.27;;
11228;SDS011;5671;47.936;8.716;2023-12-07T08:01:56;13.77;;;8.37;;
11228;SDS011;5671;47.936;8.716;2023-12-07T08:04:23;16.57;;;9.27;;
11228;SDS011;5671;47.936;8.716;2023-12-07T08:06:50;43.87;;;11.20;;
11228;SDS011;5671;47.936;8.716;2023-12-07T08:09:17;29.67;;;10.80;;
11228;SDS011;5671;47.936;8.716;2023-12-07T08:11:45;62.05;;;13.70;;
11228;SDS011;5671;47.936;8.716;2023-12-07T08:14:12;72.07;;;13.93;;
11228;SDS011;5671;47.936;8.716;2023-12-07T08:16:42;18.77;;;10.10;;
11228;SDS011;5671;47.936;8.716;2023-12-07T08:19:11;22.43;;;9.17;;
11228;SDS011;5671;47.936;8.716;2023-12-07T08:21:38;36.03;;;11.48;;
11228;SDS011;5671;47.936;8.716;2023-12-07T08:24:05;28.48;;;11.80;;
11228;SDS011;5671;47.936;8.716;2023-12-07T08:26:33;13.18;;;9.55;;
11228;SDS011;5671;47.936;8.716;2023-12-07T08:29:01;18.63;;;10.13;;
11228;SDS011;5671;47.936;8.716;2023-12-07T08:31:28;19.55;;;11.00;;
11228;SDS011;5671;47.936;8.716;2023-12-07T08:33:55;20.67;;;11.93;;
11228;SDS011;5671;47.936;8.716;2023-12-07T08:36:22;20.30;;;11.60;;
11228;SDS011;5671;47.936;8.716;2023-12-07T08:38:49;18.17;;;12.18;;
11228;SDS011;5671;47.936;8.716;2023-12-07T08:41:15;14.80;;;11.68;;
11228;SDS011;5671;47.936;8.716;2023-12-07T08:43:42;17.27;;;11.68;;
11228;SDS011;5671;47.936;8.716;2023-12-07T08:46:10;17.27;;;11.82;;
11228;SDS011;5671;47.936;8.716;2023-12-07T08:48:37;17.40;;;12.40;;
11228;SDS011;5671;47.936;8.716;2023-12-07T08:51:04;25.52;;;13.00;;
11228;SDS011;5671;47.936;8.716;2023-12-07T08:53:33;26.30;;;13.67;;
11228;SDS011;5671;47.936;8.716;2023-12-07T08:56:00;22.60;;;12.57;;
11228;SDS011;5671;47.936;8.716;2023-12-07T08:58:27;18.95;;;13.25;;
11228;SDS011;5671;47.936;8.716;2023-12-07T09:00:54;22.20;;;13.73;;
11228;SDS011;5671;47.936;8.716;2023-12-07T09:03:22;26.77;;;14.63;;
11228;SDS011;5671;47.936;8.716;2023-12-07T09:05:52;20.20;;;13.40;;
11228;SDS011;5671;47.936;8.716;2023-12-07T09:08:19;19.20;;;13.53;;
11228;SDS011;5671;47.936;8.716;2023-12-07T09:10:46;13.77;;;11.57;;
11228;SDS011;5671;47.936;8.716;2023-12-07T09:13:14;15.15;;;12.13;;
11228;SDS011;5671;47.936;8.716;2023-12-07T09:15:41;14.80;;;12.17;;
11228;SDS011;5671;47.936;8.716;2023-12-07T09:18:08;15.27;;;11.93;;
11228;SDS011;5671;47.936;8.716;2023-12-07T09:20:37;16.33;;;11.97;;
11228;SDS011;5671;47.936;8.716;2023-12-07T09:23:10;13.47;;;11.47;;
11228;SDS011;5671;47.936;8.716;2023-12-07T09:25:37;15.60;;;13.07;;
11228;SDS011;5671;47.936;8.716;2023-12-07T09:28:05;17.77;;;13.57;;
11228;SDS011;5671;47.936;8.716;2023-12-07T09:30:33;17.67;;;14.33;;
11228;SDS011;5671;47.936;8.716;2023-12-07T09:33:00;15.18;;;12.73;;
11228;SDS011;5671;47.936;8.716;2023-12-07T09:35:28;16.47;;;13.33;;
11228;SDS011;5671;47.936;8.716;2023-12-07T09:37:56;14.20;;;12.33;;
11228;SDS011;5671;47.936;8.716;2023-12-07T09:40:23;16.47;;;12.40;;
11228;SDS011;5671;47.936;8.716;2023-12-07T09:42:51;14.13;;;11.97;;
11228;SDS011;5671;47.936;8.716;2023-12-07T09:45:18;14.27;;;12.77;;
11228;SDS011;5671;47.936;8.716;2023-12-07T09:47:46;12.63;;;11.30;;
11228;SDS011;5671;47.936;8.716;2023-12-07T09:50:15;11.63;;;10.47;;
11228;SDS011;5671;47.936;8.716;2023-12-07T09:52:43;11.83;;;10.53;;
11228;SDS011;5671;47.936;8.716;2023-12-07T09:55:12;12.13;;;10.70;;
11228;SDS011;5671;47.936;8.716;2023-12-07T09:57:39;11.90;;;10.70;;
11228;SDS011;5671;47.936;8.716;2023-12-07T10:00:06;12.13;;;10.65;;
11228;SDS011;5671;47.936;8.716;2023-12-07T10:02:36;13.33;;;11.47;;
11228;SDS011;5671;47.936;8.716;2023-12-07T10:05:04;12.20;;;10.97;;
11228;SDS011;5671;47.936;8.716;2023-12-07T10:07:32;12.27;;;11.07;;
11228;SDS011;5671;47.936;8.716;2023-12-07T10:10:01;13.80;;;12.43;;
11228;SDS011;5671;47.936;8.716;2023-12-07T10:12:30;34.53;;;29.37;;
11228;SDS011;5671;47.936;8.716;2023-12-07T10:14:58;15.67;;;12.43;;
11228;SDS011;5671;47.936;8.716;2023-12-07T10:17:29;12.20;;;11.00;;
11228;SDS011;5671;47.936;8.716;2023-12-07T10:20:10;10.80;;;9.70;;
11228;SDS011;5671;47.936;8.716;2023-12-07T10:22:38;11.27;;;9.70;;
11228;SDS011;5671;47.936;8.716;2023-12-07T10:25:07;11.23;;;10.13;;
11228;SDS011;5671;47.936;8.716;2023-12-07T10:27:37;10.60;;;9.47;;
11228;SDS011;5671;47.936;8.716;2023-12-07T10:30:06;10.52;;;9.30;;
11228;SDS011;5671;47.936;8.716;2023-12-07T10:32:35;11.17;;;10.07;;
11228;SDS011;5671;47.936;8.716;2023-12-07T10:35:04;9.03;;;8.13;;
11228;SDS011;5671;47.936;8.716;2023-12-07T10:37:32;9.90;;;8.90;;
11228;SDS011;5671;47.936;8.716;2023-12-07T10:39:59;10.80;;;9.70;;
11228;SDS011;5671;47.936;8.716;2023-12-07T10:42:26;11.07;;;9.27;;
11228;SDS011;5671;47.936;8.716;2023-12-07T10:45:01;10.20;;;9.10;;
11228;SDS011;5671;47.936;8.716;2023-12-07T10:47:31;10.63;;;9.13;;
11228;SDS011;5671;47.936;8.716;2023-12-07T10:50:01;10.33;;;9.27;;
11228;SDS011;5671;47.936;8.716;2023-12-07T10:52:32;9.37;;;8.47;;
11228;SDS011;5671;47.936;8.716;2023-12-07T10:55:03;9.03;;;8.10;;
11228;SDS011;5671;47.936;8.716;2023-12-07T10:57:33;10.03;;;8.33;;
11228;SDS011;5671;47.936;8.716;2023-12-07T11:00:04;8.33;;;7.53;;
11228;SDS011;5671;47.936;8.716;2023-12-07T11:02:33;7.30;;;6.60;;
11228;SDS011;5671;47.936;8.716;2023-12-07T11:05:01;7.87;;;7.07;;
11228;SDS011;5671;47.936;8.716;2023-12-07T11:07:31;7.93;;;6.80;;
11228;SDS011;5671;47.936;8.716;2023-12-07T11:10:05;7.67;;;6.93;;
11228;SDS011;5671;47.936;8.716;2023-12-07T11:12:44;8.50;;;6.67;;
11228;SDS011;5671;47.936;8.716;2023-12-07T11:15:16;6.53;;;5.77;;
11228;SDS011;5671;47.936;8.716;2023-12-07T11:17:50;7.10;;;6.33;;
11228;SDS011;5671;47.936;8.716;2023-12-07T11:20:18;6.70;;;6.00;;
11228;SDS011;5671;47.936;8.716;2023-12-07T11:22:46;7.60;;;5.33;;
11228;SDS011;5671;47.936;8.716;2023-12-07T11:25:15;6.80;;;5.80;;
11228;SDS011;5671;47.936;8.716;2023-12-07T11:27:44;6.40;;;5.70;;
11228;SDS011;5671;47.936;8.716;2023-12-07T11:30:13;7.30;;;6.57;;
11228;SDS011;5671;47.936;8.716;2023-12-07T11:32:42;8.13;;;7.33;;
11228;SDS011;5671;47.936;8.716;2023-12-07T11:35:12;10.77;;;8.97;;
11228;SDS011;5671;47.936;8.716;2023-12-07T11:40:31;12.63;;;9.53;;
11228;SDS011;5671;47.936;8.716;2023-12-07T11:42:58;9.73;;;7.93;;
11228;SDS011;5671;47.936;8.716;2023-12-07T11:45:36;8.77;;;7.97;;
11228;SDS011;5671;47.936;8.716;2023-12-07T11:48:08;9.03;;;8.23;;
11228;SDS011;5671;47.936;8.716;2023-12-07T11:50:36;7.77;;;6.97;;
11228;SDS011;5671;47.936;8.716;2023-12-07T11:53:20;7.13;;;4.20;;
11228;SDS011;5671;47.936;8.716;2023-12-07T11:55:48;5.10;;;4.37;;
11228;SDS011;5671;47.936;8.716;2023-12-07T11:58:14;3.67;;;3.13;;
11228;SDS011;5671;47.936;8.716;2023-12-07T12:00:41;4.27;;;3.23;;
11228;SDS011;5671;47.936;8.716;2023-12-07T12:03:12;3.47;;;2.90;;
11228;SDS011;5671;47.936;8.716;2023-12-07T12:05:40;6.97;;;5.67;;
11228;SDS011;5671;47.936;8.716;2023-12-07T12:08:08;5.30;;;4.77;;
11228;SDS011;5671;47.936;8.716;2023-12-07T12:10:35;3.57;;;2.70;;
11228;SDS011;5671;47.936;8.716;2023-12-07T12:13:02;2.90;;;2.60;;
11228;SDS011;5671;47.936;8.716;2023-12-07T12:15:29;2.83;;;2.53;;
11228;SDS011;5671;47.936;8.716;2023-12-07T12:17:56;5.53;;;2.73;;
11228;SDS011;5671;47.936;8.716;2023-12-07T12:20:25;3.07;;;2.63;;
11228;SDS011;5671;47.936;8.716;2023-12-07T12:22:53;2.83;;;2.53;;
11228;SDS011;5671;47.936;8.716;2023-12-07T12:25:20;2.80;;;2.50;;
11228;SDS011;5671;47.936;8.716;2023-12-07T12:27:50;2.90;;;2.63;;
11228;SDS011;5671;47.936;8.716;2023-12-07T12:30:18;3.23;;;2.70;;
11228;SDS011;5671;47.936;8.716;2023-12-07T12:32:47;3.00;;;2.70;;
11228;SDS011;5671;47.936;8.716;2023-12-07T12:35:15;3.03;;;2.73;;
11228;SDS011;5671;47.936;8.716;2023-12-07T12:37:44;3.33;;;2.70;;
11228;SDS011;5671;47.936;8.716;2023-12-07T12:40:12;3.90;;;2.87;;
11228;SDS011;5671;47.936;8.716;2023-12-07T12:42:43;4.30;;;3.10;;
11228;SDS011;5671;47.936;8.716;2023-12-07T12:45:11;3.60;;;3.00;;
11228;SDS011;5671;47.936;8.716;2023-12-07T12:47:38;3.40;;;3.10;;
11228;SDS011;5671;47.936;8.716;2023-12-07T12:50:05;4.63;;;3.43;;
11228;SDS011;5671;47.936;8.716;2023-12-07T12:52:33;4.77;;;2.87;;
11228;SDS011;5671;47.936;8.716;2023-12-07T12:55:02;4.80;;;3.17;;
11228;SDS011;5671;47.936;8.716;2023-12-07T12:57:32;3.57;;;3.27;;
11228;SDS011;5671;47.936;8.716;2023-12-07T13:00:01;4.70;;;3.23;;
11228;SDS011;5671;47.936;8.716;2023-12-07T13:02:28;3.70;;;3.40;;
11228;SDS011;5671;47.936;8.716;2023-12-07T13:04:55;3.80;;;3.40;;
11228;SDS011;5671;47.936;8.716;2023-12-07T13:07:22;3.70;;;3.40;;
11228;SDS011;5671;47.936;8.716;2023-12-07T13:09:49;3.80;;;3.37;;
11228;SDS011;5671;47.936;8.716;2023-12-07T13:12:17;3.73;;;3.43;;
11228;SDS011;5671;47.936;8.716;2023-12-07T13:14:45;4.07;;;3.40;;
11228;SDS011;5671;47.936;8.716;2023-12-07T13:17:12;6.33;;;3.30;;
11228;SDS011;5671;47.936;8.716;2023-12-07T13:19:39;3.70;;;3.40;;
11228;SDS011;5671;47.936;8.716;2023-12-07T13:22:05;3.90;;;3.23;;
11228;SDS011;5671;47.936;8.716;2023-12-07T13:24:32;4.30;;;3.90;;
11228;SDS011;5671;47.936;8.716;2023-12-07T13:27:00;3.90;;;3.60;;
11228;SDS011;5671;47.936;8.716;2023-12-07T13:29:28;4.17;;;3.77;;
11228;SDS011;5671;47.936;8.716;2023-12-07T13:31:55;4.90;;;3.63;;
11228;SDS011;5671;47.936;8.716;2023-12-07T13:34:23;4.43;;;4.03;;
11228;SDS011;5671;47.936;8.716;2023-12-07T13:36:51;4.30;;;3.90;;
11228;SDS011;5671;47.936;8.716;2023-12-07T13:39:18;4.30;;;3.90;;
11228;SDS011;5671;47.936;8.716;2023-12-07T13:41:46;5.00;;;4.30;;
11228;SDS011;5671;47.936;8.716;2023-12-07T13:44:14;5.77;;;4.60;;
11228;SDS011;5671;47.936;8.716;2023-12-07T13:46:44;4.73;;;4.33;;
11228;SDS011;5671;47.936;8.716;2023-12-07T13:49:11;5.80;;;4.50;;
11228;SDS011;5671;47.936;8.716;2023-12-07T13:51:39;4.87;;;4.47;;
11228;SDS011;5671;47.936;8.716;2023-12-07T13:54:06;4.40;;;4.00;;
11228;SDS011;5671;47.936;8.716;2023-12-07T13:56:33;4.53;;;4.13;;
11228;SDS011;5671;47.936;8.716;2023-12-07T13:59:00;4.80;;;4.40;;
11228;SDS011;5671;47.936;8.716;2023-12-07T14:01:27;5.20;;;4.47;;
11228;SDS011;5671;47.936;8.716;2023-12-07T14:03:58;4.73;;;4.33;;
11228;SDS011;5671;47.936;8.716;2023-12-07T14:06:27;5.10;;;4.70;;
11228;SDS011;5671;47.936;8.716;2023-12-07T14:08:53;5.40;;;4.63;;
11228;SDS011;5671;47.936;8.716;2023-12-07T14:11:20;4.23;;;3.83;;
11228;SDS011;5671;47.936;8.716;2023-12-07T14:13:47;5.40;;;4.90;;
11228;SDS011;5671;47.936;8.716;2023-12-07T14:16:18;5.07;;;4.57;;
11228;SDS011;5671;47.936;8.716;2023-12-07T14:18:45;5.30;;;4.80;;
11228;SDS011;5671;47.936;8.716;2023-12-07T14:21:14;4.57;;;4.17;;
11228;SDS011;5671;47.936;8.716;2023-12-07T14:23:45;8.17;;;4.53;;
11228;SDS011;5671;47.936;8.716;2023-12-07T14:26:12;5.30;;;4.80;;
11228;SDS011;5671;47.936;8.716;2023-12-07T14:28:39;5.50;;;5.00;;
11228;SDS011;5671;47.936;8.716;2023-12-07T14:31:07;5.40;;;4.90;;
11228;SDS011;5671;47.936;8.716;2023-12-07T14:33:39;5.60;;;5.10;;
11228;SDS011;5671;47.936;8.716;2023-12-07T14:36:07;7.23;;;5.33;;
11228;SDS011;5671;47.936;8.716;2023-12-07T14:38:37;6.00;;;5.33;;
11228;SDS011;5671;47.936;8.716;2023-12-07T14:41:04;5.13;;;4.63;;
11228;SDS011;5671;47.936;8.716;2023-12-07T14:43:31;5.33;;;4.83;;
11228;SDS011;5671;47.936;8.716;2023-12-07T14:45:59;5.27;;;4.77;;
11228;SDS011;5671;47.936;8.716;2023-12-07T14:48:27;6.80;;;5.30;;
11228;SDS011;5671;47.936;8.716;2023-12-07T14:50:54;5.20;;;4.70;;
11228;SDS011;5671;47.936;8.716;2023-12-07T14:53:20;7.13;;;5.40;;
11228;SDS011;5671;47.936;8.716;2023-12-07T14:55:50;6.53;;;5.23;;
11228;SDS011;5671;47.936;8.716;2023-12-07T14:58:17;7.40;;;6.70;;